sensor_id;sensor_type;location;lat;lon;timestamp;P1;durP1;ratioP1;P2;durP2;ratioP2
10711;SDS011;5407;51.234;6.804;2023-07-16T00:01:22;6.70;;;3.22;;
10711;SDS011;5407;51.234;6.804;2023-07-16T00:03:49;6.57;;;3.40;;
10711;SDS011;5407;51.234;6.804;2023-07-16T00:06:16;5.15;;;3.00;;
10711;SDS011;5407;51.234;6.804;2023-07-16T00:08:43;7.05;;;3.50;;
10711;SDS011;5407;51.234;6.804;2023-07-16T00:11:11;6.05;;;2.55;;
10711;SDS011;5407;51.234;6.804;2023-07-16T00:13:38;4.00;;;2.42;;
10711;SDS011;5407;51.234;6.804;2023-07-16T00:16:11;6.97;;;2.83;;
10711;SDS011;5407;51.234;6.804;2023-07-16T00:18:38;4.35;;;2.25;;
10711;SDS011;5407;51.234;6.804;2023-07-16T00:21:04;5.55;;;2.50;;
10711;SDS011;5407;51.234;6.804;2023-07-16T00:23:31;4.88;;;2.33;;
10711;SDS011;5407;51.234;6.804;2023-07-16T00:25:58;3.97;;;2.20;;
10711;SDS011;5407;51.234;6.804;2023-07-16T00:28:26;5.85;;;2.30;;
10711;SDS011;5407;51.234;6.804;2023-07-16T00:30:53;3.33;;;2.00;;
10711;SDS011;5407;51.234;6.804;2023-07-16T00:33:20;5.10;;;2.10;;
10711;SDS011;5407;51.234;6.804;2023-07-16T00:35:47;6.78;;;2.40;;
10711;SDS011;5407;51.234;6.804;2023-07-16T00:38:16;5.85;;;1.80;;
10711;SDS011;5407;51.234;6.804;2023-07-16T00:40:44;6.63;;;2.05;;
10711;SDS011;5407;51.234;6.804;2023-07-16T00:43:11;5.82;;;2.35;;
10711;SDS011;5407;51.234;6.804;2023-07-16T00:45:39;3.72;;;2.30;;
10711;SDS011;5407;51.234;6.804;2023-07-16T00:48:07;4.55;;;2.55;;
10711;SDS011;5407;51.234;6.804;2023-07-16T00:50:35;7.13;;;2.75;;
10711;SDS011;5407;51.234;6.804;2023-07-16T00:53:04;5.28;;;3.15;;
10711;SDS011;5407;51.234;6.804;2023-07-16T00:55:32;4.90;;;3.53;;
10711;SDS011;5407;51.234;6.804;2023-07-16T00:58:00;7.28;;;4.15;;
10711;SDS011;5407;51.234;6.804;2023-07-16T01:00:31;7.13;;;3.78;;
10711;SDS011;5407;51.234;6.804;2023-07-16T01:03:00;9.13;;;3.60;;
10711;SDS011;5407;51.234;6.804;2023-07-16T01:05:29;7.85;;;3.90;;
10711;SDS011;5407;51.234;6.804;2023-07-16T01:08:04;7.93;;;3.95;;
10711;SDS011;5407;51.234;6.804;2023-07-16T01:10:35;8.35;;;3.80;;
10711;SDS011;5407;51.234;6.804;2023-07-16T01:13:03;5.97;;;3.50;;
10711;SDS011;5407;51.234;6.804;2023-07-16T01:15:31;6.13;;;3.35;;
10711;SDS011;5407;51.234;6.804;2023-07-16T01:18:00;5.10;;;3.10;;
10711;SDS011;5407;51.234;6.804;2023-07-16T01:20:27;6.00;;;2.70;;
10711;SDS011;5407;51.234;6.804;2023-07-16T01:23:08;3.95;;;2.42;;
10711;SDS011;5407;51.234;6.804;2023-07-16T01:26:07;5.25;;;2.63;;
10711;SDS011;5407;51.234;6.804;2023-07-16T01:28:48;7.70;;;2.58;;
10711;SDS011;5407;51.234;6.804;2023-07-16T01:31:26;4.03;;;2.28;;
10711;SDS011;5407;51.234;6.804;2023-07-16T01:33:55;5.97;;;2.60;;
10711;SDS011;5407;51.234;6.804;2023-07-16T01:36:22;8.90;;;2.63;;
10711;SDS011;5407;51.234;6.804;2023-07-16T01:38:51;5.20;;;2.20;;
10711;SDS011;5407;51.234;6.804;2023-07-16T01:41:18;6.18;;;2.20;;
10711;SDS011;5407;51.234;6.804;2023-07-16T01:43:45;5.07;;;2.30;;
10711;SDS011;5407;51.234;6.804;2023-07-16T01:46:13;5.15;;;2.03;;
10711;SDS011;5407;51.234;6.804;2023-07-16T01:48:41;9.80;;;2.25;;
10711;SDS011;5407;51.234;6.804;2023-07-16T01:51:08;6.80;;;2.28;;
10711;SDS011;5407;51.234;6.804;2023-07-16T01:53:36;6.50;;;1.95;;
10711;SDS011;5407;51.234;6.804;2023-07-16T01:56:03;8.45;;;2.47;;
10711;SDS011;5407;51.234;6.804;2023-07-16T01:58:30;5.10;;;2.20;;
10711;SDS011;5407;51.234;6.804;2023-07-16T02:00:57;7.50;;;2.28;;
10711;SDS011;5407;51.234;6.804;2023-07-16T02:03:24;6.20;;;2.17;;
10711;SDS011;5407;51.234;6.804;2023-07-16T02:05:52;7.65;;;2.05;;
10711;SDS011;5407;51.234;6.804;2023-07-16T02:08:19;10.23;;;2.35;;
10711;SDS011;5407;51.234;6.804;2023-07-16T02:10:47;6.93;;;2.58;;
10711;SDS011;5407;51.234;6.804;2023-07-16T02:13:14;11.98;;;2.15;;
10711;SDS011;5407;51.234;6.804;2023-07-16T02:15:41;6.30;;;2.47;;
10711;SDS011;5407;51.234;6.804;2023-07-16T02:18:10;10.05;;;2.40;;
10711;SDS011;5407;51.234;6.804;2023-07-16T02:20:37;9.73;;;2.33;;
10711;SDS011;5407;51.234;6.804;2023-07-16T02:23:05;8.60;;;2.85;;
10711;SDS011;5407;51.234;6.804;2023-07-16T02:25:32;7.15;;;2.25;;
10711;SDS011;5407;51.234;6.804;2023-07-16T02:27:59;5.65;;;2.30;;
10711;SDS011;5407;51.234;6.804;2023-07-16T02:30:28;9.63;;;2.55;;
10711;SDS011;5407;51.234;6.804;2023-07-16T02:32:55;6.47;;;2.50;;
10711;SDS011;5407;51.234;6.804;2023-07-16T02:35:22;11.18;;;2.30;;
10711;SDS011;5407;51.234;6.804;2023-07-16T02:37:49;8.43;;;2.40;;
10711;SDS011;5407;51.234;6.804;2023-07-16T02:40:19;10.07;;;2.45;;
10711;SDS011;5407;51.234;6.804;2023-07-16T02:42:46;7.78;;;2.75;;
10711;SDS011;5407;51.234;6.804;2023-07-16T02:45:13;5.72;;;2.28;;
10711;SDS011;5407;51.234;6.804;2023-07-16T02:47:41;15.10;;;3.15;;
10711;SDS011;5407;51.234;6.804;2023-07-16T02:50:08;8.45;;;2.65;;
10711;SDS011;5407;51.234;6.804;2023-07-16T02:52:36;8.73;;;2.50;;
10711;SDS011;5407;51.234;6.804;2023-07-16T02:55:03;8.70;;;2.90;;
10711;SDS011;5407;51.234;6.804;2023-07-16T02:57:32;10.07;;;2.45;;
10711;SDS011;5407;51.234;6.804;2023-07-16T02:59:58;8.85;;;2.38;;
10711;SDS011;5407;51.234;6.804;2023-07-16T03:02:25;5.63;;;2.40;;
10711;SDS011;5407;51.234;6.804;2023-07-16T03:04:52;6.45;;;2.40;;
10711;SDS011;5407;51.234;6.804;2023-07-16T03:07:19;8.18;;;2.33;;
10711;SDS011;5407;51.234;6.804;2023-07-16T03:09:46;5.30;;;2.10;;
10711;SDS011;5407;51.234;6.804;2023-07-16T03:12:13;6.60;;;2.67;;
10711;SDS011;5407;51.234;6.804;2023-07-16T03:14:41;7.35;;;2.22;;
10711;SDS011;5407;51.234;6.804;2023-07-16T03:17:10;7.28;;;2.50;;
10711;SDS011;5407;51.234;6.804;2023-07-16T03:19:37;6.82;;;2.10;;
10711;SDS011;5407;51.234;6.804;2023-07-16T03:22:04;6.35;;;2.20;;
10711;SDS011;5407;51.234;6.804;2023-07-16T03:24:32;4.40;;;2.20;;
10711;SDS011;5407;51.234;6.804;2023-07-16T03:26:59;6.43;;;2.58;;
10711;SDS011;5407;51.234;6.804;2023-07-16T03:29:27;8.88;;;2.45;;
10711;SDS011;5407;51.234;6.804;2023-07-16T03:31:56;5.10;;;2.53;;
10711;SDS011;5407;51.234;6.804;2023-07-16T03:34:22;6.25;;;2.30;;
10711;SDS011;5407;51.234;6.804;2023-07-16T03:36:49;6.30;;;2.28;;
10711;SDS011;5407;51.234;6.804;2023-07-16T03:39:16;5.70;;;2.30;;
10711;SDS011;5407;51.234;6.804;2023-07-16T03:41:43;4.47;;;2.22;;
10711;SDS011;5407;51.234;6.804;2023-07-16T03:44:10;4.18;;;2.30;;
10711;SDS011;5407;51.234;6.804;2023-07-16T03:46:37;5.38;;;2.28;;
10711;SDS011;5407;51.234;6.804;2023-07-16T03:49:07;6.47;;;2.47;;
10711;SDS011;5407;51.234;6.804;2023-07-16T03:51:34;5.00;;;2.22;;
10711;SDS011;5407;51.234;6.804;2023-07-16T03:54:01;7.75;;;2.60;;
10711;SDS011;5407;51.234;6.804;2023-07-16T03:56:28;6.10;;;2.55;;
10711;SDS011;5407;51.234;6.804;2023-07-16T03:58:55;7.07;;;2.47;;
10711;SDS011;5407;51.234;6.804;2023-07-16T04:01:22;6.00;;;2.47;;
10711;SDS011;5407;51.234;6.804;2023-07-16T04:03:49;7.28;;;2.20;;
10711;SDS011;5407;51.234;6.804;2023-07-16T04:06:17;8.00;;;2.80;;
10711;SDS011;5407;51.234;6.804;2023-07-16T04:08:44;6.78;;;2.42;;
10711;SDS011;5407;51.234;6.804;2023-07-16T04:11:11;8.00;;;3.33;;
10711;SDS011;5407;51.234;6.804;2023-07-16T04:13:37;4.68;;;2.53;;
10711;SDS011;5407;51.234;6.804;2023-07-16T04:16:04;5.38;;;2.28;;
10711;SDS011;5407;51.234;6.804;2023-07-16T04:18:31;6.75;;;2.30;;
10711;SDS011;5407;51.234;6.804;2023-07-16T04:20:58;9.73;;;3.25;;
10711;SDS011;5407;51.234;6.804;2023-07-16T04:23:26;9.00;;;2.45;;
10711;SDS011;5407;51.234;6.804;2023-07-16T04:25:53;7.88;;;2.60;;
10711;SDS011;5407;51.234;6.804;2023-07-16T04:28:21;6.88;;;2.50;;
10711;SDS011;5407;51.234;6.804;2023-07-16T04:30:48;6.50;;;2.50;;
10711;SDS011;5407;51.234;6.804;2023-07-16T04:33:15;6.30;;;2.50;;
10711;SDS011;5407;51.234;6.804;2023-07-16T04:35:44;8.00;;;2.70;;
10711;SDS011;5407;51.234;6.804;2023-07-16T04:38:11;9.10;;;2.78;;
10711;SDS011;5407;51.234;6.804;2023-07-16T04:40:41;6.13;;;2.63;;
10711;SDS011;5407;51.234;6.804;2023-07-16T04:43:08;8.50;;;2.75;;
10711;SDS011;5407;51.234;6.804;2023-07-16T04:45:35;8.77;;;2.58;;
10711;SDS011;5407;51.234;6.804;2023-07-16T04:48:02;6.20;;;2.60;;
10711;SDS011;5407;51.234;6.804;2023-07-16T04:50:29;6.53;;;2.50;;
10711;SDS011;5407;51.234;6.804;2023-07-16T04:52:56;10.20;;;2.60;;
10711;SDS011;5407;51.234;6.804;2023-07-16T04:55:23;7.13;;;2.60;;
10711;SDS011;5407;51.234;6.804;2023-07-16T04:57:51;8.57;;;2.90;;
10711;SDS011;5407;51.234;6.804;2023-07-16T05:00:18;9.43;;;2.90;;
10711;SDS011;5407;51.234;6.804;2023-07-16T05:02:45;8.85;;;2.85;;
10711;SDS011;5407;51.234;6.804;2023-07-16T05:05:12;6.35;;;2.67;;
10711;SDS011;5407;51.234;6.804;2023-07-16T05:07:39;9.68;;;2.92;;
10711;SDS011;5407;51.234;6.804;2023-07-16T05:10:06;11.65;;;2.90;;
10711;SDS011;5407;51.234;6.804;2023-07-16T05:12:34;8.02;;;2.50;;
10711;SDS011;5407;51.234;6.804;2023-07-16T05:15:03;11.18;;;2.90;;
10711;SDS011;5407;51.234;6.804;2023-07-16T05:17:30;13.35;;;3.05;;
10711;SDS011;5407;51.234;6.804;2023-07-16T05:19:57;7.85;;;2.97;;
10711;SDS011;5407;51.234;6.804;2023-07-16T05:22:24;10.70;;;3.20;;
10711;SDS011;5407;51.234;6.804;2023-07-16T05:24:51;6.60;;;2.97;;
10711;SDS011;5407;51.234;6.804;2023-07-16T05:27:17;10.13;;;2.97;;
10711;SDS011;5407;51.234;6.804;2023-07-16T05:29:44;11.70;;;3.20;;
10711;SDS011;5407;51.234;6.804;2023-07-16T05:32:12;12.02;;;2.92;;
10711;SDS011;5407;51.234;6.804;2023-07-16T05:34:39;8.43;;;2.65;;
10711;SDS011;5407;51.234;6.804;2023-07-16T05:37:06;7.47;;;3.15;;
10711;SDS011;5407;51.234;6.804;2023-07-16T05:39:33;8.65;;;3.25;;
10711;SDS011;5407;51.234;6.804;2023-07-16T05:42:00;8.18;;;3.03;;
10711;SDS011;5407;51.234;6.804;2023-07-16T05:44:27;8.80;;;3.45;;
10711;SDS011;5407;51.234;6.804;2023-07-16T05:46:54;8.23;;;3.13;;
10711;SDS011;5407;51.234;6.804;2023-07-16T05:49:23;6.45;;;2.92;;
10711;SDS011;5407;51.234;6.804;2023-07-16T05:51:51;9.25;;;3.13;;
10711;SDS011;5407;51.234;6.804;2023-07-16T05:54:17;8.38;;;3.30;;
10711;SDS011;5407;51.234;6.804;2023-07-16T05:56:44;8.02;;;3.30;;
10711;SDS011;5407;51.234;6.804;2023-07-16T05:59:11;8.90;;;3.60;;
10711;SDS011;5407;51.234;6.804;2023-07-16T06:01:38;9.95;;;3.40;;
10711;SDS011;5407;51.234;6.804;2023-07-16T06:04:05;7.72;;;3.60;;
10711;SDS011;5407;51.234;6.804;2023-07-16T06:06:33;10.23;;;3.22;;
10711;SDS011;5407;51.234;6.804;2023-07-16T06:09:00;8.73;;;3.55;;
10711;SDS011;5407;51.234;6.804;2023-07-16T06:11:27;8.88;;;3.42;;
10711;SDS011;5407;51.234;6.804;2023-07-16T06:13:54;9.20;;;3.55;;
10711;SDS011;5407;51.234;6.804;2023-07-16T06:16:21;10.75;;;3.72;;
10711;SDS011;5407;51.234;6.804;2023-07-16T06:18:48;7.90;;;3.60;;
10711;SDS011;5407;51.234;6.804;2023-07-16T06:21:15;9.77;;;3.80;;
10711;SDS011;5407;51.234;6.804;2023-07-16T06:23:43;8.43;;;3.78;;
10711;SDS011;5407;51.234;6.804;2023-07-16T06:26:10;7.93;;;3.50;;
10711;SDS011;5407;51.234;6.804;2023-07-16T06:28:38;9.40;;;3.70;;
10711;SDS011;5407;51.234;6.804;2023-07-16T06:31:05;9.95;;;4.38;;
10711;SDS011;5407;51.234;6.804;2023-07-16T06:33:31;8.55;;;3.90;;
10711;SDS011;5407;51.234;6.804;2023-07-16T06:35:58;10.07;;;4.05;;
10711;SDS011;5407;51.234;6.804;2023-07-16T06:38:25;10.77;;;3.80;;
10711;SDS011;5407;51.234;6.804;2023-07-16T06:40:53;8.50;;;4.10;;
10711;SDS011;5407;51.234;6.804;2023-07-16T06:43:21;10.20;;;4.30;;
10711;SDS011;5407;51.234;6.804;2023-07-16T06:45:48;8.70;;;4.07;;
10711;SDS011;5407;51.234;6.804;2023-07-16T06:48:16;10.02;;;4.38;;
10711;SDS011;5407;51.234;6.804;2023-07-16T06:50:43;10.77;;;4.22;;
10711;SDS011;5407;51.234;6.804;2023-07-16T06:53:10;8.95;;;4.38;;
10711;SDS011;5407;51.234;6.804;2023-07-16T06:55:37;7.40;;;3.92;;
10711;SDS011;5407;51.234;6.804;2023-07-16T06:58:05;13.07;;;4.22;;
10711;SDS011;5407;51.234;6.804;2023-07-16T07:00:36;7.55;;;4.00;;
10711;SDS011;5407;51.234;6.804;2023-07-16T07:03:03;11.05;;;4.30;;
10711;SDS011;5407;51.234;6.804;2023-07-16T07:05:30;10.45;;;4.32;;
10711;SDS011;5407;51.234;6.804;2023-07-16T07:07:56;6.40;;;3.90;;
10711;SDS011;5407;51.234;6.804;2023-07-16T07:10:23;13.63;;;4.35;;
10711;SDS011;5407;51.234;6.804;2023-07-16T07:12:50;9.48;;;4.55;;
10711;SDS011;5407;51.234;6.804;2023-07-16T07:15:19;7.93;;;4.28;;
10711;SDS011;5407;51.234;6.804;2023-07-16T07:17:46;13.38;;;4.65;;
10711;SDS011;5407;51.234;6.804;2023-07-16T07:20:14;13.65;;;4.75;;
10711;SDS011;5407;51.234;6.804;2023-07-16T07:22:41;9.68;;;4.40;;
10711;SDS011;5407;51.234;6.804;2023-07-16T07:25:08;9.63;;;4.20;;
10711;SDS011;5407;51.234;6.804;2023-07-16T07:27:34;9.95;;;4.60;;
10711;SDS011;5407;51.234;6.804;2023-07-16T07:30:01;11.43;;;4.80;;
10711;SDS011;5407;51.234;6.804;2023-07-16T07:32:30;9.00;;;4.47;;
10711;SDS011;5407;51.234;6.804;2023-07-16T07:34:57;12.63;;;4.72;;
10711;SDS011;5407;51.234;6.804;2023-07-16T07:37:24;12.77;;;4.70;;
10711;SDS011;5407;51.234;6.804;2023-07-16T07:39:51;9.23;;;4.60;;
10711;SDS011;5407;51.234;6.804;2023-07-16T07:42:19;9.95;;;4.75;;
10711;SDS011;5407;51.234;6.804;2023-07-16T07:44:46;9.93;;;4.70;;
10711;SDS011;5407;51.234;6.804;2023-07-16T07:47:12;11.43;;;4.93;;
10711;SDS011;5407;51.234;6.804;2023-07-16T07:49:41;8.35;;;4.65;;
10711;SDS011;5407;51.234;6.804;2023-07-16T07:52:08;8.75;;;4.70;;
10711;SDS011;5407;51.234;6.804;2023-07-16T07:54:35;10.25;;;4.30;;
10711;SDS011;5407;51.234;6.804;2023-07-16T07:57:02;10.52;;;4.45;;
10711;SDS011;5407;51.234;6.804;2023-07-16T07:59:30;9.48;;;4.57;;
10711;SDS011;5407;51.234;6.804;2023-07-16T08:01:57;9.30;;;4.63;;
10711;SDS011;5407;51.234;6.804;2023-07-16T08:04:24;8.68;;;4.85;;
10711;SDS011;5407;51.234;6.804;2023-07-16T08:06:53;8.55;;;4.68;;
10711;SDS011;5407;51.234;6.804;2023-07-16T08:09:20;8.32;;;4.35;;
10711;SDS011;5407;51.234;6.804;2023-07-16T08:11:47;9.20;;;4.30;;
10711;SDS011;5407;51.234;6.804;2023-07-16T08:14:14;6.82;;;4.30;;
10711;SDS011;5407;51.234;6.804;2023-07-16T08:16:41;10.32;;;4.85;;
10711;SDS011;5407;51.234;6.804;2023-07-16T08:19:08;10.60;;;4.32;;
10711;SDS011;5407;51.234;6.804;2023-07-16T08:21:35;6.75;;;4.07;;
10711;SDS011;5407;51.234;6.804;2023-07-16T08:24:05;9.75;;;4.13;;
10711;SDS011;5407;51.234;6.804;2023-07-16T08:26:32;8.80;;;4.43;;
10711;SDS011;5407;51.234;6.804;2023-07-16T08:28:59;10.82;;;4.38;;
10711;SDS011;5407;51.234;6.804;2023-07-16T08:31:27;7.93;;;4.00;;
10711;SDS011;5407;51.234;6.804;2023-07-16T08:33:54;7.10;;;3.97;;
10711;SDS011;5407;51.234;6.804;2023-07-16T08:36:21;10.52;;;4.18;;
10711;SDS011;5407;51.234;6.804;2023-07-16T08:38:48;10.10;;;3.92;;
10711;SDS011;5407;51.234;6.804;2023-07-16T08:41:16;6.80;;;4.10;;
10711;SDS011;5407;51.234;6.804;2023-07-16T08:43:45;14.48;;;4.25;;
10711;SDS011;5407;51.234;6.804;2023-07-16T08:46:13;10.90;;;4.20;;
10711;SDS011;5407;51.234;6.804;2023-07-16T08:48:41;7.63;;;4.10;;
10711;SDS011;5407;51.234;6.804;2023-07-16T08:51:09;9.70;;;4.00;;
10711;SDS011;5407;51.234;6.804;2023-07-16T08:53:37;10.13;;;4.20;;
10711;SDS011;5407;51.234;6.804;2023-07-16T08:56:04;9.75;;;3.90;;
10711;SDS011;5407;51.234;6.804;2023-07-16T08:58:32;7.13;;;4.07;;
10711;SDS011;5407;51.234;6.804;2023-07-16T09:00:59;8.43;;;3.70;;
10711;SDS011;5407;51.234;6.804;2023-07-16T09:03:27;8.20;;;3.70;;
10711;SDS011;5407;51.234;6.804;2023-07-16T09:05:54;10.68;;;4.13;;
10711;SDS011;5407;51.234;6.804;2023-07-16T09:08:21;8.60;;;4.05;;
10711;SDS011;5407;51.234;6.804;2023-07-16T09:10:53;6.30;;;3.72;;
10711;SDS011;5407;51.234;6.804;2023-07-16T09:13:20;10.65;;;4.20;;
10711;SDS011;5407;51.234;6.804;2023-07-16T09:15:53;7.40;;;3.80;;
10711;SDS011;5407;51.234;6.804;2023-07-16T09:18:20;8.77;;;4.05;;
10711;SDS011;5407;51.234;6.804;2023-07-16T09:20:48;12.45;;;4.03;;
10711;SDS011;5407;51.234;6.804;2023-07-16T09:23:16;5.63;;;3.80;;
10711;SDS011;5407;51.234;6.804;2023-07-16T09:25:44;7.03;;;3.85;;
10711;SDS011;5407;51.234;6.804;2023-07-16T09:28:11;7.03;;;4.10;;
10711;SDS011;5407;51.234;6.804;2023-07-16T09:30:38;7.35;;;3.80;;
10711;SDS011;5407;51.234;6.804;2023-07-16T09:33:14;6.40;;;3.53;;
10711;SDS011;5407;51.234;6.804;2023-07-16T09:35:43;6.53;;;3.83;;
10711;SDS011;5407;51.234;6.804;2023-07-16T09:38:10;9.35;;;3.65;;
10711;SDS011;5407;51.234;6.804;2023-07-16T09:40:37;7.78;;;3.58;;
10711;SDS011;5407;51.234;6.804;2023-07-16T09:43:07;9.30;;;3.83;;
10711;SDS011;5407;51.234;6.804;2023-07-16T09:45:35;7.15;;;4.10;;
10711;SDS011;5407;51.234;6.804;2023-07-16T09:48:02;11.48;;;4.13;;
10711;SDS011;5407;51.234;6.804;2023-07-16T09:50:31;8.13;;;3.60;;
10711;SDS011;5407;51.234;6.804;2023-07-16T09:53:00;11.20;;;3.72;;
10711;SDS011;5407;51.234;6.804;2023-07-16T09:55:28;9.88;;;4.30;;
10711;SDS011;5407;51.234;6.804;2023-07-16T09:57:58;6.75;;;3.60;;
10711;SDS011;5407;51.234;6.804;2023-07-16T10:00:27;7.00;;;3.53;;
10711;SDS011;5407;51.234;6.804;2023-07-16T10:02:57;8.48;;;3.83;;
10711;SDS011;5407;51.234;6.804;2023-07-16T10:05:24;7.88;;;3.42;;
10711;SDS011;5407;51.234;6.804;2023-07-16T10:07:54;9.65;;;3.75;;
10711;SDS011;5407;51.234;6.804;2023-07-16T10:10:25;8.55;;;3.67;;
10711;SDS011;5407;51.234;6.804;2023-07-16T10:12:56;8.35;;;3.88;;
10711;SDS011;5407;51.234;6.804;2023-07-16T10:15:25;4.70;;;3.22;;
10711;SDS011;5407;51.234;6.804;2023-07-16T10:17:53;9.88;;;3.85;;
10711;SDS011;5407;51.234;6.804;2023-07-16T10:20:28;6.10;;;3.53;;
10711;SDS011;5407;51.234;6.804;2023-07-16T10:22:58;9.73;;;3.53;;
10711;SDS011;5407;51.234;6.804;2023-07-16T10:25:26;7.10;;;3.85;;
10711;SDS011;5407;51.234;6.804;2023-07-16T10:27:55;6.88;;;3.78;;
10711;SDS011;5407;51.234;6.804;2023-07-16T10:30:21;7.75;;;3.75;;
10711;SDS011;5407;51.234;6.804;2023-07-16T10:32:50;9.05;;;3.63;;
10711;SDS011;5407;51.234;6.804;2023-07-16T10:35:18;4.90;;;3.67;;
10711;SDS011;5407;51.234;6.804;2023-07-16T10:37:45;6.13;;;3.33;;
10711;SDS011;5407;51.234;6.804;2023-07-16T10:40:14;7.97;;;3.50;;
10711;SDS011;5407;51.234;6.804;2023-07-16T10:42:41;5.85;;;3.42;;
10711;SDS011;5407;51.234;6.804;2023-07-16T10:45:11;8.32;;;3.63;;
10711;SDS011;5407;51.234;6.804;2023-07-16T10:47:40;6.78;;;3.70;;
10711;SDS011;5407;51.234;6.804;2023-07-16T10:50:16;8.73;;;3.70;;
10711;SDS011;5407;51.234;6.804;2023-07-16T10:52:45;5.30;;;3.25;;
10711;SDS011;5407;51.234;6.804;2023-07-16T10:55:14;9.63;;;3.80;;
10711;SDS011;5407;51.234;6.804;2023-07-16T10:57:40;5.57;;;3.60;;
10711;SDS011;5407;51.234;6.804;2023-07-16T11:00:10;8.65;;;3.53;;
10711;SDS011;5407;51.234;6.804;2023-07-16T11:02:39;8.27;;;3.45;;
10711;SDS011;5407;51.234;6.804;2023-07-16T11:05:09;4.25;;;3.30;;
10711;SDS011;5407;51.234;6.804;2023-07-16T11:07:36;8.05;;;4.80;;
10711;SDS011;5407;51.234;6.804;2023-07-16T11:10:03;6.45;;;3.75;;
10711;SDS011;5407;51.234;6.804;2023-07-16T11:12:32;7.30;;;3.40;;
10711;SDS011;5407;51.234;6.804;2023-07-16T11:14:59;6.45;;;3.45;;
10711;SDS011;5407;51.234;6.804;2023-07-16T11:17:26;9.13;;;3.80;;
10711;SDS011;5407;51.234;6.804;2023-07-16T11:19:53;4.65;;;2.90;;
10711;SDS011;5407;51.234;6.804;2023-07-16T11:22:24;8.93;;;3.75;;
10711;SDS011;5407;51.234;6.804;2023-07-16T11:24:51;8.82;;;3.30;;
10711;SDS011;5407;51.234;6.804;2023-07-16T11:27:20;8.25;;;3.45;;
10711;SDS011;5407;51.234;6.804;2023-07-16T11:29:49;5.20;;;3.42;;
10711;SDS011;5407;51.234;6.804;2023-07-16T11:32:30;7.63;;;3.42;;
10711;SDS011;5407;51.234;6.804;2023-07-16T11:34:58;5.90;;;3.70;;
10711;SDS011;5407;51.234;6.804;2023-07-16T11:37:26;6.63;;;3.50;;
10711;SDS011;5407;51.234;6.804;2023-07-16T11:39:56;8.55;;;3.22;;
10711;SDS011;5407;51.234;6.804;2023-07-16T11:42:24;7.10;;;3.25;;
10711;SDS011;5407;51.234;6.804;2023-07-16T11:44:56;9.40;;;3.53;;
10711;SDS011;5407;51.234;6.804;2023-07-16T11:47:23;7.38;;;3.60;;
10711;SDS011;5407;51.234;6.804;2023-07-16T11:49:50;8.75;;;3.45;;
10711;SDS011;5407;51.234;6.804;2023-07-16T11:52:18;7.47;;;3.22;;
10711;SDS011;5407;51.234;6.804;2023-07-16T11:54:46;8.43;;;3.28;;
10711;SDS011;5407;51.234;6.804;2023-07-16T11:57:13;5.07;;;3.08;;
10711;SDS011;5407;51.234;6.804;2023-07-16T11:59:40;7.95;;;3.30;;
10711;SDS011;5407;51.234;6.804;2023-07-16T12:02:08;6.78;;;3.22;;
10711;SDS011;5407;51.234;6.804;2023-07-16T12:04:35;8.85;;;3.38;;
10711;SDS011;5407;51.234;6.804;2023-07-16T12:07:03;6.78;;;3.47;;
10711;SDS011;5407;51.234;6.804;2023-07-16T12:09:29;11.00;;;3.63;;
10711;SDS011;5407;51.234;6.804;2023-07-16T12:11:57;8.68;;;3.35;;
10711;SDS011;5407;51.234;6.804;2023-07-16T12:14:24;10.45;;;3.63;;
10711;SDS011;5407;51.234;6.804;2023-07-16T12:16:50;12.65;;;3.33;;
10711;SDS011;5407;51.234;6.804;2023-07-16T12:19:19;5.13;;;2.95;;
10711;SDS011;5407;51.234;6.804;2023-07-16T12:21:46;6.28;;;3.35;;
10711;SDS011;5407;51.234;6.804;2023-07-16T12:24:13;6.35;;;3.40;;
10711;SDS011;5407;51.234;6.804;2023-07-16T12:26:40;7.50;;;3.10;;
10711;SDS011;5407;51.234;6.804;2023-07-16T12:29:07;8.43;;;3.40;;
10711;SDS011;5407;51.234;6.804;2023-07-16T12:31:33;7.57;;;3.40;;
10711;SDS011;5407;51.234;6.804;2023-07-16T12:34:01;7.13;;;3.35;;
10711;SDS011;5407;51.234;6.804;2023-07-16T12:36:29;10.38;;;3.45;;
10711;SDS011;5407;51.234;6.804;2023-07-16T12:38:57;6.60;;;3.35;;
10711;SDS011;5407;51.234;6.804;2023-07-16T12:41:23;5.45;;;3.35;;
10711;SDS011;5407;51.234;6.804;2023-07-16T12:43:50;6.07;;;3.50;;
10711;SDS011;5407;51.234;6.804;2023-07-16T12:46:17;5.93;;;3.58;;
10711;SDS011;5407;51.234;6.804;2023-07-16T12:48:44;9.88;;;3.45;;
10711;SDS011;5407;51.234;6.804;2023-07-16T12:51:11;7.82;;;3.20;;
10711;SDS011;5407;51.234;6.804;2023-07-16T12:53:39;6.88;;;3.10;;
10711;SDS011;5407;51.234;6.804;2023-07-16T12:56:06;9.02;;;2.88;;
10711;SDS011;5407;51.234;6.804;2023-07-16T12:58:33;6.93;;;3.50;;
10711;SDS011;5407;51.234;6.804;2023-07-16T13:01:00;7.45;;;3.45;;
10711;SDS011;5407;51.234;6.804;2023-07-16T13:03:27;7.78;;;3.22;;
10711;SDS011;5407;51.234;6.804;2023-07-16T13:05:54;7.03;;;3.60;;
10711;SDS011;5407;51.234;6.804;2023-07-16T13:08:21;6.55;;;3.22;;
10711;SDS011;5407;51.234;6.804;2023-07-16T13:10:49;8.73;;;3.38;;
10711;SDS011;5407;51.234;6.804;2023-07-16T13:13:16;6.15;;;3.40;;
10711;SDS011;5407;51.234;6.804;2023-07-16T13:15:43;8.63;;;3.30;;
10711;SDS011;5407;51.234;6.804;2023-07-16T13:18:10;4.55;;;3.15;;
10711;SDS011;5407;51.234;6.804;2023-07-16T13:20:37;7.60;;;3.15;;
10711;SDS011;5407;51.234;6.804;2023-07-16T13:23:04;7.40;;;3.58;;
10711;SDS011;5407;51.234;6.804;2023-07-16T13:25:35;8.23;;;3.35;;
10711;SDS011;5407;51.234;6.804;2023-07-16T13:28:05;6.32;;;3.45;;
10711;SDS011;5407;51.234;6.804;2023-07-16T13:30:32;6.53;;;3.00;;
10711;SDS011;5407;51.234;6.804;2023-07-16T13:32:59;6.88;;;3.30;;
10711;SDS011;5407;51.234;6.804;2023-07-16T13:35:26;12.73;;;3.45;;
10711;SDS011;5407;51.234;6.804;2023-07-16T13:37:54;7.57;;;3.03;;
10711;SDS011;5407;51.234;6.804;2023-07-16T13:40:21;6.05;;;3.28;;
10711;SDS011;5407;51.234;6.804;2023-07-16T13:42:48;7.95;;;3.40;;
10711;SDS011;5407;51.234;6.804;2023-07-16T13:45:16;6.38;;;3.20;;
10711;SDS011;5407;51.234;6.804;2023-07-16T13:47:43;6.28;;;3.40;;
10711;SDS011;5407;51.234;6.804;2023-07-16T13:50:10;9.23;;;3.67;;
10711;SDS011;5407;51.234;6.804;2023-07-16T13:52:37;8.25;;;3.35;;
10711;SDS011;5407;51.234;6.804;2023-07-16T13:55:04;6.68;;;3.75;;
10711;SDS011;5407;51.234;6.804;2023-07-16T13:57:32;5.10;;;3.40;;
10711;SDS011;5407;51.234;6.804;2023-07-16T13:59:58;9.00;;;3.60;;
10711;SDS011;5407;51.234;6.804;2023-07-16T14:02:27;8.25;;;3.50;;
10711;SDS011;5407;51.234;6.804;2023-07-16T14:04:54;7.60;;;3.30;;
10711;SDS011;5407;51.234;6.804;2023-07-16T14:07:21;6.68;;;3.40;;
10711;SDS011;5407;51.234;6.804;2023-07-16T14:09:49;4.43;;;2.88;;
10711;SDS011;5407;51.234;6.804;2023-07-16T14:12:15;6.05;;;3.55;;
10711;SDS011;5407;51.234;6.804;2023-07-16T14:14:42;7.35;;;3.22;;
10711;SDS011;5407;51.234;6.804;2023-07-16T14:17:10;6.50;;;2.75;;
10711;SDS011;5407;51.234;6.804;2023-07-16T14:19:38;6.93;;;3.10;;
10711;SDS011;5407;51.234;6.804;2023-07-16T14:22:05;6.63;;;3.30;;
10711;SDS011;5407;51.234;6.804;2023-07-16T14:24:32;7.50;;;2.72;;
10711;SDS011;5407;51.234;6.804;2023-07-16T14:26:59;7.50;;;2.92;;
10711;SDS011;5407;51.234;6.804;2023-07-16T14:29:27;6.18;;;2.92;;
10711;SDS011;5407;51.234;6.804;2023-07-16T14:31:54;11.23;;;3.00;;
10711;SDS011;5407;51.234;6.804;2023-07-16T14:34:21;6.63;;;3.00;;
10711;SDS011;5407;51.234;6.804;2023-07-16T14:36:50;10.70;;;2.95;;
10711;SDS011;5407;51.234;6.804;2023-07-16T14:39:17;7.30;;;3.00;;
10711;SDS011;5407;51.234;6.804;2023-07-16T14:41:44;5.53;;;2.63;;
10711;SDS011;5407;51.234;6.804;2023-07-16T14:44:11;5.90;;;3.20;;
10711;SDS011;5407;51.234;6.804;2023-07-16T14:46:38;5.47;;;2.85;;
10711;SDS011;5407;51.234;6.804;2023-07-16T14:49:05;6.45;;;2.92;;
10711;SDS011;5407;51.234;6.804;2023-07-16T14:51:32;6.32;;;2.72;;
10711;SDS011;5407;51.234;6.804;2023-07-16T14:54:06;7.30;;;2.92;;
10711;SDS011;5407;51.234;6.804;2023-07-16T14:56:33;6.55;;;3.50;;
10711;SDS011;5407;51.234;6.804;2023-07-16T14:59:01;6.00;;;3.10;;
10711;SDS011;5407;51.234;6.804;2023-07-16T15:01:28;4.93;;;3.17;;
10711;SDS011;5407;51.234;6.804;2023-07-16T15:03:55;5.28;;;3.05;;